sensor_id;sensor_type;location;lat;lon;timestamp;temperature;humidity
6496;DHT22;3281;47.658;9.166;2022-08-21T00:00:42;17.70;99.90
6496;DHT22;3281;47.658;9.166;2022-08-21T00:03:10;17.70;99.90
6496;DHT22;3281;47.658;9.166;2022-08-21T00:05:42;17.80;99.90
6496;DHT22;3281;47.658;9.166;2022-08-21T00:08:10;17.70;99.90
6496;DHT22;3281;47.658;9.166;2022-08-21T00:10:39;17.70;99.90
6496;DHT22;3281;47.658;9.166;2022-08-21T00:13:06;17.70;99.90
6496;DHT22;3281;47.658;9.166;2022-08-21T00:15:34;17.70;99.90
6496;DHT22;3281;47.658;9.166;2022-08-21T00:18:03;17.60;99.90
6496;DHT22;3281;47.658;9.166;2022-08-21T00:20:30;17.70;99.90
6496;DHT22;3281;47.658;9.166;2022-08-21T00:22:57;17.70;99.90
6496;DHT22;3281;47.658;9.166;2022-08-21T00:25:27;17.60;99.90
6496;DHT22;3281;47.658;9.166;2022-08-21T00:27:54;17.60;99.90
6496;DHT22;3281;47.658;9.166;2022-08-21T00:30:22;17.50;99.90
6496;DHT22;3281;47.658;9.166;2022-08-21T00:32:50;17.50;99.90
6496;DHT22;3281;47.658;9.166;2022-08-21T00:35:21;17.40;99.90
6496;DHT22;3281;47.658;9.166;2022-08-21T00:37:48;17.40;99.90
6496;DHT22;3281;47.658;9.166;2022-08-21T00:40:19;17.40;99.90
6496;DHT22;3281;47.658;9.166;2022-08-21T00:42:47;17.40;99.90
6496;DHT22;3281;47.658;9.166;2022-08-21T00:45:14;17.40;99.90
6496;DHT22;3281;47.658;9.166;2022-08-21T00:47:41;17.30;99.90
6496;DHT22;3281;47.658;9.166;2022-08-21T00:50:10;17.30;99.90
6496;DHT22;3281;47.658;9.166;2022-08-21T00:52:37;17.30;99.90
6496;DHT22;3281;47.658;9.166;2022-08-21T00:55:07;17.30;99.90
6496;DHT22;3281;47.658;9.166;2022-08-21T00:57:39;17.30;99.90
6496;DHT22;3281;47.658;9.166;2022-08-21T01:00:12;17.20;99.90
6496;DHT22;3281;47.658;9.166;2022-08-21T01:02:40;17.20;99.90
6496;DHT22;3281;47.658;9.166;2022-08-21T01:05:08;17.20;99.90
6496;DHT22;3281;47.658;9.166;2022-08-21T01:07:35;17.20;99.90
6496;DHT22;3281;47.658;9.166;2022-08-21T01:10:03;17.30;99.90
6496;DHT22;3281;47.658;9.166;2022-08-21T01:12:30;17.30;99.90
6496;DHT22;3281;47.658;9.166;2022-08-21T01:14:57;17.40;99.90
6496;DHT22;3281;47.658;9.166;2022-08-21T01:17:26;17.50;99.90
6496;DHT22;3281;47.658;9.166;2022-08-21T01:19:57;17.50;99.90
6496;DHT22;3281;47.658;9.166;2022-08-21T01:22:25;17.40;99.90
6496;DHT22;3281;47.658;9.166;2022-08-21T01:24:52;17.50;99.90
6496;DHT22;3281;47.658;9.166;2022-08-21T01:27:19;17.50;99.90
6496;DHT22;3281;47.658;9.166;2022-08-21T01:29:51;17.60;99.90
6496;DHT22;3281;47.658;9.166;2022-08-21T01:32:20;17.60;99.90
6496;DHT22;3281;47.658;9.166;2022-08-21T01:34:49;17.70;99.90
6496;DHT22;3281;47.658;9.166;2022-08-21T01:37:16;17.70;99.90
6496;DHT22;3281;47.658;9.166;2022-08-21T01:39:44;17.80;99.90
6496;DHT22;3281;47.658;9.166;2022-08-21T01:42:12;17.80;99.90
6496;DHT22;3281;47.658;9.166;2022-08-21T01:44:39;17.90;99.90
6496;DHT22;3281;47.658;9.166;2022-08-21T01:47:09;17.80;99.90
6496;DHT22;3281;47.658;9.166;2022-08-21T01:49:37;17.90;99.90
6496;DHT22;3281;47.658;9.166;2022-08-21T01:52:05;17.90;99.90
6496;DHT22;3281;47.658;9.166;2022-08-21T01:54:32;17.90;99.90
6496;DHT22;3281;47.658;9.166;2022-08-21T01:57:01;17.90;99.90
6496;DHT22;3281;47.658;9.166;2022-08-21T01:59:28;18.00;99.90
6496;DHT22;3281;47.658;9.166;2022-08-21T02:01:55;18.00;99.90
6496;DHT22;3281;47.658;9.166;2022-08-21T02:04:23;18.00;99.90
6496;DHT22;3281;47.658;9.166;2022-08-21T02:06:50;17.90;99.90
6496;DHT22;3281;47.658;9.166;2022-08-21T02:09:17;18.00;99.90
6496;DHT22;3281;47.658;9.166;2022-08-21T02:11:43;17.90;99.90
6496;DHT22;3281;47.658;9.166;2022-08-21T02:14:14;18.00;99.90
6496;DHT22;3281;47.658;9.166;2022-08-21T02:16:42;17.90;99.90
6496;DHT22;3281;47.658;9.166;2022-08-21T02:19:10;17.90;99.90
6496;DHT22;3281;47.658;9.166;2022-08-21T02:21:38;18.00;99.90
6496;DHT22;3281;47.658;9.166;2022-08-21T02:24:05;18.00;99.90
6496;DHT22;3281;47.658;9.166;2022-08-21T02:26:32;18.00;99.90
6496;DHT22;3281;47.658;9.166;2022-08-21T02:28:59;18.00;99.90
6496;DHT22;3281;47.658;9.166;2022-08-21T02:31:27;18.00;99.90
6496;DHT22;3281;47.658;9.166;2022-08-21T02:33:54;18.00;99.90
6496;DHT22;3281;47.658;9.166;2022-08-21T02:36:21;18.00;99.90
6496;DHT22;3281;47.658;9.166;2022-08-21T02:38:48;18.00;99.90
6496;DHT22;3281;47.658;9.166;2022-08-21T02:41:18;18.00;99.90
6496;DHT22;3281;47.658;9.166;2022-08-21T02:43:45;18.10;99.90
6496;DHT22;3281;47.658;9.166;2022-08-21T02:46:14;18.10;99.90
6496;DHT22;3281;47.658;9.166;2022-08-21T02:48:43;18.10;99.90
6496;DHT22;3281;47.658;9.166;2022-08-21T02:51:12;18.10;99.90
6496;DHT22;3281;47.658;9.166;2022-08-21T02:53:39;18.10;99.90
6496;DHT22;3281;47.658;9.166;2022-08-21T02:56:10;18.10;99.90
6496;DHT22;3281;47.658;9.166;2022-08-21T02:58:40;18.20;99.90
6496;DHT22;3281;47.658;9.166;2022-08-21T03:01:08;18.10;99.90
6496;DHT22;3281;47.658;9.166;2022-08-21T03:03:36;18.10;99.90
6496;DHT22;3281;47.658;9.166;2022-08-21T03:06:05;18.10;99.90
6496;DHT22;3281;47.658;9.166;2022-08-21T03:08:34;18.10;99.90
6496;DHT22;3281;47.658;9.166;2022-08-21T03:11:01;18.10;99.90
6496;DHT22;3281;47.658;9.166;2022-08-21T03:13:28;18.20;99.90
6496;DHT22;3281;47.658;9.166;2022-08-21T03:15:55;18.20;99.90
6496;DHT22;3281;47.658;9.166;2022-08-21T03:18:22;18.10;99.90
6496;DHT22;3281;47.658;9.166;2022-08-21T03:20:49;18.10;99.90
6496;DHT22;3281;47.658;9.166;2022-08-21T03:23:17;18.10;99.90
6496;DHT22;3281;47.658;9.166;2022-08-21T03:25:45;18.10;99.90
6496;DHT22;3281;47.658;9.166;2022-08-21T03:28:15;18.10;99.90
6496;DHT22;3281;47.658;9.166;2022-08-21T03:30:44;18.10;99.90
6496;DHT22;3281;47.658;9.166;2022-08-21T03:33:11;18.10;99.90
6496;DHT22;3281;47.658;9.166;2022-08-21T03:35:38;18.10;99.90
6496;DHT22;3281;47.658;9.166;2022-08-21T03:38:06;18.10;99.90
6496;DHT22;3281;47.658;9.166;2022-08-21T03:40:34;18.10;99.90
6496;DHT22;3281;47.658;9.166;2022-08-21T03:43:01;18.10;99.90
6496;DHT22;3281;47.658;9.166;2022-08-21T03:45:27;18.10;99.90
6496;DHT22;3281;47.658;9.166;2022-08-21T03:47:57;18.10;99.90
6496;DHT22;3281;47.658;9.166;2022-08-21T03:50:27;18.20;99.90
6496;DHT22;3281;47.658;9.166;2022-08-21T03:52:55;18.20;99.90
6496;DHT22;3281;47.658;9.166;2022-08-21T03:55:23;18.10;99.90
6496;DHT22;3281;47.658;9.166;2022-08-21T03:57:52;18.20;99.90
6496;DHT22;3281;47.658;9.166;2022-08-21T04:00:20;18.10;99.90
6496;DHT22;3281;47.658;9.166;2022-08-21T04:02:47;18.00;99.90
6496;DHT22;3281;47.658;9.166;2022-08-21T04:05:15;18.10;99.90
6496;DHT22;3281;47.658;9.166;2022-08-21T04:07:52;18.10;99.90
6496;DHT22;3281;47.658;9.166;2022-08-21T04:10:19;18.20;99.90
6496;DHT22;3281;47.658;9.166;2022-08-21T04:12:46;18.10;99.90
6496;DHT22;3281;47.658;9.166;2022-08-21T04:15:15;18.10;99.90
6496;DHT22;3281;47.658;9.166;2022-08-21T04:17:41;18.30;99.90
6496;DHT22;3281;47.658;9.166;2022-08-21T04:20:08;18.20;99.90
6496;DHT22;3281;47.658;9.166;2022-08-21T04:22:35;18.20;99.90
6496;DHT22;3281;47.658;9.166;2022-08-21T04:25:03;18.20;99.90
6496;DHT22;3281;47.658;9.166;2022-08-21T04:27:29;18.20;99.90
6496;DHT22;3281;47.658;9.166;2022-08-21T04:29:56;18.20;99.90
6496;DHT22;3281;47.658;9.166;2022-08-21T04:32:25;18.00;99.90
6496;DHT22;3281;47.658;9.166;2022-08-21T04:34:59;18.00;99.90
6496;DHT22;3281;47.658;9.166;2022-08-21T04:37:26;18.10;99.90
6496;DHT22;3281;47.658;9.166;2022-08-21T04:39:53;18.10;99.90
6496;DHT22;3281;47.658;9.166;2022-08-21T04:42:22;18.10;99.90
6496;DHT22;3281;47.658;9.166;2022-08-21T04:44:49;18.10;99.90
6496;DHT22;3281;47.658;9.166;2022-08-21T04:47:16;18.10;99.90
6496;DHT22;3281;47.658;9.166;2022-08-21T04:49:44;18.20;99.90
6496;DHT22;3281;47.658;9.166;2022-08-21T04:52:13;18.10;99.90
6496;DHT22;3281;47.658;9.166;2022-08-21T04:54:43;18.20;99.90
6496;DHT22;3281;47.658;9.166;2022-08-21T04:57:11;18.20;99.90
6496;DHT22;3281;47.658;9.166;2022-08-21T04:59:43;18.20;99.90
6496;DHT22;3281;47.658;9.166;2022-08-21T05:02:11;18.20;99.90
6496;DHT22;3281;47.658;9.166;2022-08-21T05:04:44;18.10;99.90
6496;DHT22;3281;47.658;9.166;2022-08-21T05:07:15;18.20;99.90
6496;DHT22;3281;47.658;9.166;2022-08-21T05:09:43;18.10;99.90
6496;DHT22;3281;47.658;9.166;2022-08-21T05:12:10;18.10;99.90
6496;DHT22;3281;47.658;9.166;2022-08-21T05:14:37;18.30;99.90
6496;DHT22;3281;47.658;9.166;2022-08-21T05:17:04;18.20;99.90
6496;DHT22;3281;47.658;9.166;2022-08-21T05:19:31;18.20;99.90
6496;DHT22;3281;47.658;9.166;2022-08-21T05:21:59;18.20;99.90
6496;DHT22;3281;47.658;9.166;2022-08-21T05:24:26;18.20;99.90
6496;DHT22;3281;47.658;9.166;2022-08-21T05:26:53;18.20;99.90
6496;DHT22;3281;47.658;9.166;2022-08-21T05:29:20;18.20;99.90
6496;DHT22;3281;47.658;9.166;2022-08-21T05:31:47;18.20;99.90
6496;DHT22;3281;47.658;9.166;2022-08-21T05:34:14;18.30;99.90
6496;DHT22;3281;47.658;9.166;2022-08-21T05:36:41;18.30;99.90
6496;DHT22;3281;47.658;9.166;2022-08-21T05:39:09;18.30;99.90
6496;DHT22;3281;47.658;9.166;2022-08-21T05:41:36;18.30;99.90
6496;DHT22;3281;47.658;9.166;2022-08-21T05:44:03;18.30;99.90
6496;DHT22;3281;47.658;9.166;2022-08-21T05:46:30;18.30;99.90
6496;DHT22;3281;47.658;9.166;2022-08-21T05:48:57;18.30;99.90
6496;DHT22;3281;47.658;9.166;2022-08-21T05:51:24;18.30;99.90
6496;DHT22;3281;47.658;9.166;2022-08-21T05:53:50;18.30;99.90
6496;DHT22;3281;47.658;9.166;2022-08-21T05:56:19;18.40;99.90
6496;DHT22;3281;47.658;9.166;2022-08-21T05:58:46;18.50;99.90
6496;DHT22;3281;47.658;9.166;2022-08-21T06:01:12;18.50;99.90
6496;DHT22;3281;47.658;9.166;2022-08-21T06:03:41;18.40;99.90
6496;DHT22;3281;47.658;9.166;2022-08-21T06:06:08;18.50;99.90
6496;DHT22;3281;47.658;9.166;2022-08-21T06:08:35;18.60;99.90
6496;DHT22;3281;47.658;9.166;2022-08-21T06:11:05;18.60;99.90
6496;DHT22;3281;47.658;9.166;2022-08-21T06:13:33;18.70;99.90
6496;DHT22;3281;47.658;9.166;2022-08-21T06:16:03;18.60;99.90
6496;DHT22;3281;47.658;9.166;2022-08-21T06:18:30;18.60;99.90
6496;DHT22;3281;47.658;9.166;2022-08-21T06:20:57;18.60;99.90
6496;DHT22;3281;47.658;9.166;2022-08-21T06:23:23;18.70;99.90
6496;DHT22;3281;47.658;9.166;2022-08-21T06:25:50;18.80;99.90
6496;DHT22;3281;47.658;9.166;2022-08-21T06:28:17;18.80;99.90
6496;DHT22;3281;47.658;9.166;2022-08-21T06:30:45;18.90;99.90
6496;DHT22;3281;47.658;9.166;2022-08-21T06:33:12;18.90;99.90
6496;DHT22;3281;47.658;9.166;2022-08-21T06:35:39;18.90;99.90
6496;DHT22;3281;47.658;9.166;2022-08-21T06:38:06;19.00;99.90
6496;DHT22;3281;47.658;9.166;2022-08-21T06:40:32;19.00;99.90
6496;DHT22;3281;47.658;9.166;2022-08-21T06:43:06;19.00;99.90
6496;DHT22;3281;47.658;9.166;2022-08-21T06:45:34;19.10;99.90
6496;DHT22;3281;47.658;9.166;2022-08-21T06:48:03;19.20;99.90
6496;DHT22;3281;47.658;9.166;2022-08-21T06:50:30;19.20;99.90
6496;DHT22;3281;47.658;9.166;2022-08-21T06:53:04;19.30;99.90
6496;DHT22;3281;47.658;9.166;2022-08-21T06:55:31;19.20;99.90
6496;DHT22;3281;47.658;9.166;2022-08-21T06:57:58;19.30;99.90
6496;DHT22;3281;47.658;9.166;2022-08-21T07:00:25;19.30;99.90
6496;DHT22;3281;47.658;9.166;2022-08-21T07:02:52;19.20;99.90
6496;DHT22;3281;47.658;9.166;2022-08-21T07:05:20;19.10;99.90
6496;DHT22;3281;47.658;9.166;2022-08-21T07:07:47;19.30;99.90
6496;DHT22;3281;47.658;9.166;2022-08-21T07:10:15;19.30;99.90
6496;DHT22;3281;47.658;9.166;2022-08-21T07:12:42;19.40;99.90
6496;DHT22;3281;47.658;9.166;2022-08-21T07:15:09;19.30;99.90
6496;DHT22;3281;47.658;9.166;2022-08-21T07:17:36;19.20;99.90
6496;DHT22;3281;47.658;9.166;2022-08-21T07:20:04;19.20;99.90
6496;DHT22;3281;47.658;9.166;2022-08-21T07:22:33;19.20;99.90
6496;DHT22;3281;47.658;9.166;2022-08-21T07:25:01;19.30;99.90
6496;DHT22;3281;47.658;9.166;2022-08-21T07:27:28;19.20;99.90
6496;DHT22;3281;47.658;9.166;2022-08-21T07:29:55;19.20;99.90
6496;DHT22;3281;47.658;9.166;2022-08-21T07:32:21;19.10;99.90
6496;DHT22;3281;47.658;9.166;2022-08-21T07:34:48;19.30;99.90
6496;DHT22;3281;47.658;9.166;2022-08-21T07:37:15;19.10;99.90
6496;DHT22;3281;47.658;9.166;2022-08-21T07:39:43;19.20;99.90
6496;DHT22;3281;47.658;9.166;2022-08-21T07:42:13;19.20;99.90
6496;DHT22;3281;47.658;9.166;2022-08-21T07:44:40;19.30;99.90
6496;DHT22;3281;47.658;9.166;2022-08-21T07:47:07;19.30;99.90
6496;DHT22;3281;47.658;9.166;2022-08-21T07:49:34;19.40;99.90
6496;DHT22;3281;47.658;9.166;2022-08-21T07:52:01;19.50;99.90
6496;DHT22;3281;47.658;9.166;2022-08-21T07:54:28;19.60;99.90
6496;DHT22;3281;47.658;9.166;2022-08-21T07:56:56;19.70;99.90
6496;DHT22;3281;47.658;9.166;2022-08-21T07:59:22;19.70;99.90
6496;DHT22;3281;47.658;9.166;2022-08-21T08:01:49;19.70;99.90
6496;DHT22;3281;47.658;9.166;2022-08-21T08:04:16;19.80;99.90
6496;DHT22;3281;47.658;9.166;2022-08-21T08:06:43;19.90;99.90
6496;DHT22;3281;47.658;9.166;2022-08-21T08:09:10;19.90;99.90
6496;DHT22;3281;47.658;9.166;2022-08-21T08:11:39;20.00;99.90
6496;DHT22;3281;47.658;9.166;2022-08-21T08:14:10;20.00;99.90
6496;DHT22;3281;47.658;9.166;2022-08-21T08:16:37;20.00;99.90
6496;DHT22;3281;47.658;9.166;2022-08-21T08:19:03;20.00;99.90
6496;DHT22;3281;47.658;9.166;2022-08-21T08:21:30;20.00;99.90
6496;DHT22;3281;47.658;9.166;2022-08-21T08:23:59;20.00;99.90
6496;DHT22;3281;47.658;9.166;2022-08-21T08:26:25;20.00;99.90
6496;DHT22;3281;47.658;9.166;2022-08-21T08:28:52;20.10;99.90
6496;DHT22;3281;47.658;9.166;2022-08-21T08:31:20;20.10;97.10
6496;DHT22;3281;47.658;9.166;2022-08-21T08:33:47;20.20;96.70
6496;DHT22;3281;47.658;9.166;2022-08-21T08:36:15;20.20;95.30
6496;DHT22;3281;47.658;9.166;2022-08-21T08:38:42;20.20;96.50
6496;DHT22;3281;47.658;9.166;2022-08-21T08:41:12;20.20;94.50
6496;DHT22;3281;47.658;9.166;2022-08-21T08:43:42;20.30;95.50
6496;DHT22;3281;47.658;9.166;2022-08-21T08:46:13;20.30;96.90
6496;DHT22;3281;47.658;9.166;2022-08-21T08:48:47;20.40;92.90
6496;DHT22;3281;47.658;9.166;2022-08-21T08:51:21;20.30;92.70
6496;DHT22;3281;47.658;9.166;2022-08-21T08:53:52;20.40;90.50
6496;DHT22;3281;47.658;9.166;2022-08-21T08:56:28;20.40;91.80
6496;DHT22;3281;47.658;9.166;2022-08-21T08:58:58;20.50;95.60
6496;DHT22;3281;47.658;9.166;2022-08-21T09:01:26;20.40;84.30
6496;DHT22;3281;47.658;9.166;2022-08-21T09:03:56;20.50;91.10
6496;DHT22;3281;47.658;9.166;2022-08-21T09:06:36;20.60;89.10
6496;DHT22;3281;47.658;9.166;2022-08-21T09:09:14;20.60;90.50
6496;DHT22;3281;47.658;9.166;2022-08-21T09:11:51;20.70;89.50
6496;DHT22;3281;47.658;9.166;2022-08-21T09:14:26;20.60;73.60
6496;DHT22;3281;47.658;9.166;2022-08-21T09:16:58;20.70;76.80
6496;DHT22;3281;47.658;9.166;2022-08-21T09:19:41;20.70;79.90
6496;DHT22;3281;47.658;9.166;2022-08-21T09:22:19;20.90;82.90
6496;DHT22;3281;47.658;9.166;2022-08-21T09:25:02;20.90;92.80
6496;DHT22;3281;47.658;9.166;2022-08-21T09:27:33;20.90;78.00
6496;DHT22;3281;47.658;9.166;2022-08-21T09:30:01;21.00;75.50
6496;DHT22;3281;47.658;9.166;2022-08-21T09:32:30;21.20;72.60
6496;DHT22;3281;47.658;9.166;2022-08-21T09:35:03;21.40;73.50
6496;DHT22;3281;47.658;9.166;2022-08-21T09:37:33;21.90;69.20
6496;DHT22;3281;47.658;9.166;2022-08-21T09:40:02;21.90;66.70
6496;DHT22;3281;47.658;9.166;2022-08-21T09:42:31;22.00;69.20
6496;DHT22;3281;47.658;9.166;2022-08-21T09:45:09;22.10;79.00
6496;DHT22;3281;47.658;9.166;2022-08-21T09:47:36;22.30;84.70
6496;DHT22;3281;47.658;9.166;2022-08-21T09:50:13;22.20;69.50
6496;DHT22;3281;47.658;9.166;2022-08-21T09:52:45;22.00;57.40
6496;DHT22;3281;47.658;9.166;2022-08-21T09:55:19;21.90;52.10
6496;DHT22;3281;47.658;9.166;2022-08-21T09:58:04;21.80;46.60
6496;DHT22;3281;47.658;9.166;2022-08-21T10:00:33;21.80;69.00
6496;DHT22;3281;47.658;9.166;2022-08-21T10:03:17;21.70;49.70
6496;DHT22;3281;47.658;9.166;2022-08-21T10:05:56;21.70;50.90
6496;DHT22;3281;47.658;9.166;2022-08-21T10:08:25;21.70;46.50
6496;DHT22;3281;47.658;9.166;2022-08-21T10:10:55;21.70;57.20
6496;DHT22;3281;47.658;9.166;2022-08-21T10:13:32;21.60;30.30
6496;DHT22;3281;47.658;9.166;2022-08-21T10:16:12;21.70;63.90
6496;DHT22;3281;47.658;9.166;2022-08-21T10:18:43;21.50;19.90
6496;DHT22;3281;47.658;9.166;2022-08-21T10:21:19;21.60;23.30
6496;DHT22;3281;47.658;9.166;2022-08-21T10:23:58;21.60;36.20
6496;DHT22;3281;47.658;9.166;2022-08-21T10:26:38;21.50;25.80
6496;DHT22;3281;47.658;9.166;2022-08-21T10:29:15;21.50;6.60
6496;DHT22;3281;47.658;9.166;2022-08-21T10:31:52;21.50;14.50
6496;DHT22;3281;47.658;9.166;2022-08-21T10:34:36;21.50;6.60
6496;DHT22;3281;47.658;9.166;2022-08-21T10:37:18;21.50;13.80
6496;DHT22;3281;47.658;9.166;2022-08-21T10:39:56;21.60;19.20
6496;DHT22;3281;47.658;9.166;2022-08-21T10:42:35;21.70;1.00
6496;DHT22;3281;47.658;9.166;2022-08-21T10:45:10;21.70;1.00
6496;DHT22;3281;47.658;9.166;2022-08-21T10:47:44;21.70;1.00
6496;DHT22;3281;47.658;9.166;2022-08-21T10:50:19;21.70;1.00
6496;DHT22;3281;47.658;9.166;2022-08-21T10:53:00;21.70;6.70
6496;DHT22;3281;47.658;9.166;2022-08-21T10:55:33;21.60;3.20
6496;DHT22;3281;47.658;9.166;2022-08-21T10:58:04;21.70;1.00
6496;DHT22;3281;47.658;9.166;2022-08-21T11:00:39;21.70;3.60
6496;DHT22;3281;47.658;9.166;2022-08-21T11:03:12;21.70;1.00
6496;DHT22;3281;47.658;9.166;2022-08-21T11:05:42;21.80;1.00
6496;DHT22;3281;47.658;9.166;2022-08-21T11:08:14;21.80;1.00
6496;DHT22;3281;47.658;9.166;2022-08-21T11:10:45;21.80;1.00
6496;DHT22;3281;47.658;9.166;2022-08-21T11:13:17;21.70;1.00
6496;DHT22;3281;47.658;9.166;2022-08-21T11:15:50;21.60;1.00
6496;DHT22;3281;47.658;9.166;2022-08-21T11:18:24;21.60;1.00
6496;DHT22;3281;47.658;9.166;2022-08-21T11:21:01;21.60;1.20
6496;DHT22;3281;47.658;9.166;2022-08-21T11:23:35;21.60;1.00
6496;DHT22;3281;47.658;9.166;2022-08-21T11:26:07;21.60;1.00
6496;DHT22;3281;47.658;9.166;2022-08-21T11:28:38;21.70;1.00
6496;DHT22;3281;47.658;9.166;2022-08-21T11:31:17;21.60;1.00
6496;DHT22;3281;47.658;9.166;2022-08-21T11:34:00;21.60;1.00
6496;DHT22;3281;47.658;9.166;2022-08-21T11:36:36;21.60;1.00
6496;DHT22;3281;47.658;9.166;2022-08-21T11:39:15;21.70;1.00
6496;DHT22;3281;47.658;9.166;2022-08-21T11:41:48;21.70;1.00
6496;DHT22;3281;47.658;9.166;2022-08-21T11:44:19;21.70;1.00
6496;DHT22;3281;47.658;9.166;2022-08-21T11:46:53;21.80;1.00
6496;DHT22;3281;47.658;9.166;2022-08-21T11:49:40;21.90;1.00
6496;DHT22;3281;47.658;9.166;2022-08-21T11:52:14;21.90;1.00
6496;DHT22;3281;47.658;9.166;2022-08-21T11:54:46;21.90;1.00
6496;DHT22;3281;47.658;9.166;2022-08-21T11:57:20;22.00;1.00
6496;DHT22;3281;47.658;9.166;2022-08-21T11:59:51;22.10;1.00
6496;DHT22;3281;47.658;9.166;2022-08-21T12:02:22;22.00;1.00
6496;DHT22;3281;47.658;9.166;2022-08-21T12:04:53;22.00;1.00
6496;DHT22;3281;47.658;9.166;2022-08-21T12:07:31;22.00;1.00
6496;DHT22;3281;47.658;9.166;2022-08-21T12:10:01;22.20;1.00
6496;DHT22;3281;47.658;9.166;2022-08-21T12:12:31;22.20;1.00
6496;DHT22;3281;47.658;9.166;2022-08-21T12:15:25;22.20;1.00
6496;DHT22;3281;47.658;9.166;2022-08-21T12:17:59;22.10;1.00
6496;DHT22;3281;47.658;9.166;2022-08-21T12:20:36;22.10;1.00
6496;DHT22;3281;47.658;9.166;2022-08-21T12:23:12;22.10;1.00
6496;DHT22;3281;47.658;9.166;2022-08-21T12:25:44;22.20;1.00
6496;DHT22;3281;47.658;9.166;2022-08-21T12:28:15;22.30;1.00
6496;DHT22;3281;47.658;9.166;2022-08-21T12:30:43;22.20;1.00
6496;DHT22;3281;47.658;9.166;2022-08-21T12:33:21;22.10;1.00
6496;DHT22;3281;47.658;9.166;2022-08-21T12:35:50;22.20;1.00
6496;DHT22;3281;47.658;9.166;2022-08-21T12:38:20;22.20;1.00
6496;DHT22;3281;47.658;9.166;2022-08-21T12:40:53;22.20;1.00
6496;DHT22;3281;47.658;9.166;2022-08-21T12:43:25;22.30;1.00
6496;DHT22;3281;47.658;9.166;2022-08-21T12:45:53;22.40;1.00
6496;DHT22;3281;47.658;9.166;2022-08-21T12:48:23;22.30;1.00
6496;DHT22;3281;47.658;9.166;2022-08-21T12:50:53;22.40;1.00
6496;DHT22;3281;47.658;9.166;2022-08-21T12:53:26;22.40;1.00
6496;DHT22;3281;47.658;9.166;2022-08-21T12:55:56;22.50;1.00
6496;DHT22;3281;47.658;9.166;2022-08-21T12:58:27;22.60;1.00
6496;DHT22;3281;47.658;9.166;2022-08-21T13:00:58;22.70;1.00
6496;DHT22;3281;47.658;9.166;2022-08-21T13:03:26;22.70;1.00
6496;DHT22;3281;47.658;9.166;2022-08-21T13:05:54;22.70;1.00
6496;DHT22;3281;47.658;9.166;2022-08-21T13:08:22;22.80;1.00
6496;DHT22;3281;47.658;9.166;2022-08-21T13:11:01;22.80;1.00
6496;DHT22;3281;47.658;9.166;2022-08-21T13:13:29;22.70;1.00
6496;DHT22;3281;47.658;9.166;2022-08-21T13:15:58;22.80;1.00
6496;DHT22;3281;47.658;9.166;2022-08-21T13:18:29;22.80;1.00
6496;DHT22;3281;47.658;9.166;2022-08-21T13:21:05;22.80;1.00
6496;DHT22;3281;47.658;9.166;2022-08-21T13:23:32;22.80;1.00
6496;DHT22;3281;47.658;9.166;2022-08-21T13:25:59;22.80;1.00
6496;DHT22;3281;47.658;9.166;2022-08-21T13:28:34;22.70;1.00
6496;DHT22;3281;47.658;9.166;2022-08-21T13:31:07;22.70;1.00
6496;DHT22;3281;47.658;9.166;2022-08-21T13:33:37;22.70;1.00
6496;DHT22;3281;47.658;9.166;2022-08-21T13:36:09;22.60;1.00
6496;DHT22;3281;47.658;9.166;2022-08-21T13:38:39;22.70;1.00
6496;DHT22;3281;47.658;9.166;2022-08-21T13:41:18;22.80;1.00
6496;DHT22;3281;47.658;9.166;2022-08-21T13:43:51;22.90;1.00
6496;DHT22;3281;47.658;9.166;2022-08-21T13:46:24;22.80;1.00
6496;DHT22;3281;47.658;9.166;2022-08-21T13:48:51;22.90;1.00
6496;DHT22;3281;47.658;9.166;2022-08-21T13:51:19;23.00;1.00
6496;DHT22;3281;47.658;9.166;2022-08-21T13:53:49;22.90;1.00
6496;DHT22;3281;47.658;9.166;2022-08-21T13:56:25;22.90;1.00
6496;DHT22;3281;47.658;9.166;2022-08-21T13:58:56;23.10;1.00
6496;DHT22;3281;47.658;9.166;2022-08-21T14:01:26;23.20;1.00
6496;DHT22;3281;47.658;9.166;2022-08-21T14:03:56;23.20;1.00
6496;DHT22;3281;47.658;9.166;2022-08-21T14:06:27;23.10;1.00
6496;DHT22;3281;47.658;9.166;2022-08-21T14:08:57;23.30;1.00
6496;DHT22;3281;47.658;9.166;2022-08-21T14:11:25;23.30;1.00
6496;DHT22;3281;47.658;9.166;2022-08-21T14:13:59;23.30;1.00
6496;DHT22;3281;47.658;9.166;2022-08-21T14:16:28;23.30;1.00
6496;DHT22;3281;47.658;9.166;2022-08-21T14:19:10;23.30;1.00
6496;DHT22;3281;47.658;9.166;2022-08-21T14:21:39;23.30;1.00
6496;DHT22;3281;47.658;9.166;2022-08-21T14:24:09;23.30;1.00
6496;DHT22;3281;47.658;9.166;2022-08-21T14:26:42;23.20;1.00
6496;DHT22;3281;47.658;9.166;2022-08-21T14:29:13;23.10;1.00
6496;DHT22;3281;47.658;9.166;2022-08-21T14:31:41;23.00;1.00
6496;DHT22;3281;47.658;9.166;2022-08-21T14:34:11;23.10;1.00
6496;DHT22;3281;47.658;9.166;2022-08-21T14:36:39;23.20;1.00
6496;DHT22;3281;47.658;9.166;2022-08-21T14:39:05;23.10;1.00
6496;DHT22;3281;47.658;9.166;2022-08-21T14:41:32;23.10;1.00
6496;DHT22;3281;47.658;9.166;2022-08-21T14:43:59;23.20;1.00
6496;DHT22;3281;47.658;9.166;2022-08-21T14:46:29;23.10;1.00
6496;DHT22;3281;47.658;9.166;2022-08-21T14:48:57;23.10;1.00
6496;DHT22;3281;47.658;9.166;2022-08-21T14:51:24;23.00;1.00
6496;DHT22;3281;47.658;9.166;2022-08-21T14:53:51;23.10;1.00
6496;DHT22;3281;47.658;9.166;2022-08-21T14:56:19;23.00;1.00
6496;DHT22;3281;47.658;9.166;2022-08-21T14:58:48;23.00;1.00
6496;DHT22;3281;47.658;9.166;2022-08-21T15:01:16;23.00;1.00
6496;DHT22;3281;47.658;9.166;2022-08-21T15:03:45;22.90;1.00
6496;DHT22;3281;47.658;9.166;2022-08-21T15:06:14;22.90;1.00
6496;DHT22;3281;47.658;9.166;2022-08-21T15:08:41;22.90;1.00
6496;DHT22;3281;47.658;9.166;2022-08-21T15:11:11;22.90;1.00
6496;DHT22;3281;47.658;9.166;2022-08-21T15:13:39;22.80;1.00
6496;DHT22;3281;47.658;9.166;2022-08-21T15:16:08;22.90;1.00
6496;DHT22;3281;47.658;9.166;2022-08-21T15:18:35;22.70;1.00
6496;DHT22;3281;47.658;9.166;2022-08-21T15:21:03;22.70;1.00
6496;DHT22;3281;47.658;9.166;2022-08-21T15:23:30;22.60;1.00
6496;DHT22;3281;47.658;9.166;2022-08-21T15:25:57;22.70;1.00
6496;DHT22;3281;47.658;9.166;2022-08-21T15:28:24;22.70;1.00
6496;DHT22;3281;47.658;9.166;2022-08-21T15:30:51;22.80;1.00
6496;DHT22;3281;47.658;9.166;2022-08-21T15:33:18;22.90;1.00
6496;DHT22;3281;47.658;9.166;2022-08-21T15:35:47;22.80;1.00
6496;DHT22;3281;47.658;9.166;2022-08-21T15:38:15;22.80;1.00
6496;DHT22;3281;47.658;9.166;2022-08-21T15:40:43;22.80;1.00
6496;DHT22;3281;47.658;9.166;2022-08-21T15:43:19;22.80;1.00
6496;DHT22;3281;47.658;9.166;2022-08-21T15:45:47;22.90;1.00
6496;DHT22;3281;47.658;9.166;2022-08-21T15:48:14;22.90;1.00
6496;DHT22;3281;47.658;9.166;2022-08-21T15:50:41;22.90;1.00
6496;DHT22;3281;47.658;9.166;2022-08-21T15:53:08;22.90;1.00
6496;DHT22;3281;47.658;9.166;2022-08-21T15:55:37;22.90;1.00
6496;DHT22;3281;47.658;9.166;2022-08-21T15:58:05;22.80;1.00
6496;DHT22;3281;47.658;9.166;2022-08-21T16:00:34;22.80;1.00
6496;DHT22;3281;47.658;9.166;2022-08-21T16:03:04;22.90;1.00
6496;DHT22;3281;47.658;9.166;2022-08-21T16:05:31;22.90;1.00
6496;DHT22;3281;47.658;9.166;2022-08-21T16:07:58;22.90;1.00
6496;DHT22;3281;47.658;9.166;2022-08-21T16:10:25;22.80;1.00
6496;DHT22;3281;47.658;9.166;2022-08-21T16:12:55;22.80;1.00
6496;DHT22;3281;47.658;9.166;2022-08-21T16:15:25;22.80;1.00
6496;DHT22;3281;47.658;9.166;2022-08-21T16:17:53;22.80;1.00
6496;DHT22;3281;47.658;9.166;2022-08-21T16:20:22;22.80;1.00
6496;DHT22;3281;47.658;9.166;2022-08-21T16:22:50;22.80;1.00